Overview Statistics Trail Chart Weather Telemetry Raw packets
 

This is the latest recevied weather packets stored in our database for station/object DO1BDB-12. If no packets are shown the sender has not sent any weather packets the latest 10 day(s).

<< 472 473 474 475 476 477 478 >>
Time Temp. Humidity Pressure Rain* Wind** Luminosity Snow
1787812489 21.11° C 57% 102.1 hPa - - - -
1787812424 20.56° C 58% 102.1 hPa - - - -
1787812358 21.11° C 58% 102.1 hPa - - - -
1787812292 20.56° C 59% 102.1 hPa - - - -
1787812226 21.11° C 57% 102.1 hPa - - - -
1787812160 20° C 60% 102.1 hPa - - - -
1787812094 21.67° C 55% 102.1 hPa - - - -
1787812029 20.56° C 58% 102.1 hPa - - - -
1787811963 20.56° C 58% 102.1 hPa - - - -
1787811897 21.11° C 57% 102.1 hPa - - - -
1787811831 20.56° C 58% 102.1 hPa - - - -
1787811765 21.11° C 56% 102.1 hPa - - - -
1787811699 22.78° C 55% 102.1 hPa - - - -
1787811634 20° C 60% 102.1 hPa - - - -
1787811570 19.44° C 59% 102.1 hPa - - - -
1787811502 20° C 60% 102.1 hPa - - - -
1787811436 20° C 60% 102.1 hPa - - - -
1787811370 22.22° C 56% 102.1 hPa - - - -
1787811304 21.11° C 57% 102.1 hPa - - - -
1787811239 20° C 59% 102.1 hPa - - - -
1787811173 20.56° C 57% 102.1 hPa - - - -
1787811107 21.11° C 55% 102.1 hPa - - - -
1787811041 21.11° C 56% 102.1 hPa - - - -
1787810975 21.67° C 55% 102.1 hPa - - - -
1787810909 22.22° C 54% 102.1 hPa - - - -

* Rain since midnight (hover to see other rain measurements)
** Current wind speed in m/s (hover to see current wind gust speed)